Map

Track Data

SID SEASON NUMBER BASIN SUBBASIN NAME ISO_TIME NATURE LAT LON WMO_WIND WMO_PRES WMO_AGENCY TRACK_TYPE DIST2LAND LANDFALL IFLAG USA_AGENCY USA_ATCF_ID USA_LAT USA_LON USA_RECORD USA_STATUS USA_WIND USA_PRES USA_SSHS USA_R34_NE USA_R34_SE USA_R34_SW USA_R34_NW USA_R50_NE USA_R50_SE USA_R50_SW USA_R50_NW USA_R64_NE USA_R64_SE USA_R64_SW USA_R64_NW USA_POCI USA_ROCI USA_RMW USA_EYE TOKYO_LAT TOKYO_LON TOKYO_GRADE TOKYO_WIND TOKYO_PRES TOKYO_R50_DIR TOKYO_R50_LONG TOKYO_R50_SHORT TOKYO_R30_DIR TOKYO_R30_LONG TOKYO_R30_SHORT TOKYO_LAND CMA_LAT CMA_LON CMA_CAT CMA_WIND CMA_PRES HKO_LAT HKO_LON HKO_CAT HKO_WIND HKO_PRES NEWDELHI_LAT NEWDELHI_LON NEWDELHI_GRADE NEWDELHI_WIND NEWDELHI_PRES NEWDELHI_CI NEWDELHI_DP NEWDELHI_POCI REUNION_LAT REUNION_LON REUNION_TYPE REUNION_WIND REUNION_PRES REUNION_TNUM REUNION_CI REUNION_RMW REUNION_R34_NE REUNION_R34_SE REUNION_R34_SW REUNION_R34_NW REUNION_R50_NE REUNION_R50_SE REUNION_R50_SW REUNION_R50_NW REUNION_R64_NE REUNION_R64_SE REUNION_R64_SW REUNION_R64_NW BOM_LAT BOM_LON BOM_TYPE BOM_WIND BOM_PRES BOM_TNUM BOM_CI BOM_RMW BOM_R34_NE BOM_R34_SE BOM_R34_SW BOM_R34_NW BOM_R50_NE BOM_R50_SE BOM_R50_SW BOM_R50_NW BOM_R64_NE BOM_R64_SE BOM_R64_SW BOM_R64_NW BOM_ROCI BOM_POCI BOM_EYE BOM_POS_METHOD BOM_PRES_METHOD NADI_LAT NADI_LON NADI_CAT NADI_WIND NADI_PRES WELLINGTON_LAT WELLINGTON_LON WELLINGTON_WIND WELLINGTON_PRES DS824_LAT DS824_LON DS824_STAGE DS824_WIND DS824_PRES TD9636_LAT TD9636_LON TD9636_STAGE TD9636_WIND TD9636_PRES TD9635_LAT TD9635_LON TD9635_WIND TD9635_PRES TD9635_ROCI NEUMANN_LAT NEUMANN_LON NEUMANN_CLASS NEUMANN_WIND NEUMANN_PRES MLC_LAT MLC_LON MLC_CLASS MLC_WIND MLC_PRES USA_GUST BOM_GUST BOM_GUST_PER REUNION_GUST REUNION_GUST_PER USA_SEAHGT USA_SEARAD_NE USA_SEARAD_SE USA_SEARAD_SW USA_SEARAD_NW STORM_SPEED STORM_DIR
1917060S14068 1917 11 SI MM NOT_NAMED 1917-03-01 06:00:00 NR -13.7000 68.4000 reunion spur-split 1344 1344 _____O________ -1 -13.7000 68.4000 99 9.90000 1 160
1917060S14068 1917 11 SI MM NOT_NAMED 1917-03-01 09:00:00 NR -13.7526 68.4104 spur-split 1338 1338 _____P________ -1 -13.7526 68.4104 99 1 167
1917060S14068 1917 11 SI MM NOT_NAMED 1917-03-01 12:00:00 NR -13.8157 68.4187 spur-split 1338 1332 _____P________ -1 -13.8157 68.4187 99 1 173
1917060S14068 1917 11 SI MM NOT_NAMED 1917-03-01 15:00:00 NR -13.8997 68.4226 spur-split 1332 1326 _____P________ -1 -13.8997 68.4226 99 2 0
1917060S14068 1917 11 SI MM NOT_NAMED 1917-03-01 18:00:00 NR -14.0150 68.4200 spur-split 1326 1314 _____P________ -1 -14.0150 68.4200 99 3 0
1917060S14068 1917 11 SI MM NOT_NAMED 1917-03-01 21:00:00 NR -14.1723 68.4087 spur-split 1314 1302 _____P________ -1 -14.1723 68.4087 99 4 186
1917060S14068 1917 11 SI MM NOT_NAMED 1917-03-02 00:00:00 NR -14.3818 68.3864 spur-split 1302 1291 _____P________ -1 -14.3818 68.3864 99 5 186
1917060S14068 1917 11 SI MM NOT_NAMED 1917-03-02 03:00:00 NR -14.6542 68.3509 spur-split 1285 1260 _____P________ -1 -14.6542 68.3509 99 6 187
1917060S14068 1917 11 SI MM NOT_NAMED 1917-03-02 06:00:00 NR -15.0000 68.3000 reunion spur-split 1260 1229 _____O________ -1 -15.0000 68.3000 99 9.90000 8 188
1917060S14068 1917 11 SI MM NOT_NAMED 1917-03-02 09:00:00 NR -15.4254 68.2327 spur-split 1229 1204 _____P________ -1 -15.4254 68.2327 99 9 189
1917060S14068 1917 11 SI MM NOT_NAMED 1917-03-02 12:00:00 NR -15.9198 68.1539 spur-split 1204 1171 _____P________ -1 -15.9198 68.1539 99 11 189
1917060S14068 1917 11 SI MM NOT_NAMED 1917-03-02 15:00:00 NR -16.4682 68.0700 spur-split 1166 1136 _____P________ -1 -16.4682 68.0700 99 12 188
1917060S14068 1917 11 SI MM NOT_NAMED 1917-03-02 18:00:00 NR -17.0558 67.9872 spur-split 1132 1104 _____P________ -1 -17.0558 67.9872 99 12 187
1917060S14068 1917 11 SI MM NOT_NAMED 1917-03-02 21:00:00 NR -17.6676 67.9121 spur-split 1100 1083 _____P________ -1 -17.6676 67.9121 99 12 186
1917060S14068 1917 11 SI MM NOT_NAMED 1917-03-03 00:00:00 NR -18.2888 67.8514 spur-split 1083 1058 _____P________ -1 -18.2888 67.8514 99 12 184
1917060S14068 1917 11 SI MM NOT_NAMED 1917-03-03 03:00:00 NR -18.9046 67.8117 spur-split 1058 1049 _____P________ -1 -18.9046 67.8117 99 12 183
1917060S14068 1917 11 SI MM NOT_NAMED 1917-03-03 06:00:00 NR -19.5000 67.8000 reunion spur-split 1049 1044 _____O________ -1 -19.5000 67.8000 99 9.90000 12 178
1917060S14068 1917 11 SI MM NOT_NAMED 1917-03-03 09:00:00 NR -20.0763 67.8432 spur-split 1043 1043 _____P________ -1 -20.0763 67.8432 99 12 175
1917060S14068 1917 11 SI MM NOT_NAMED 1917-03-03 12:00:00 NR -20.6476 67.9149 spur-split 1052 1052 _____P________ -1 -20.6476 67.9149 99 11 172
1917060S14068 1917 11 SI MM NOT_NAMED 1917-03-03 15:00:00 NR -21.2037 68.0091 spur-split 1065 1065 _____P________ -1 -21.2037 68.0091 99 11 170
1917060S14068 1917 11 SI MM NOT_NAMED 1917-03-03 18:00:00 NR -21.7345 68.1197 spur-split 1080 1080 _____P________ -1 -21.7345 68.1197 99 11 168
1917060S14068 1917 11 SI MM NOT_NAMED 1917-03-03 21:00:00 NR -22.2297 68.2406 spur-split 1098 1098 _____P________ -1 -22.2297 68.2406 99 10 166
1917060S14068 1917 11 SI MM NOT_NAMED 1917-03-04 00:00:00 NR -22.6792 68.3652 spur-split 1128 1128 _____P________ -1 -22.6792 68.3652 99 9 165
1917060S14068 1917 11 SI MM NOT_NAMED 1917-03-04 03:00:00 NR -23.0727 68.4872 spur-split 1148 1148 _____P________ -1 -23.0727 68.4872 99 8 163
1917060S14068 1917 11 SI MM NOT_NAMED 1917-03-04 06:00:00 NR -23.4000 68.6000 reunion spur-split 1166 1166 _____O________ -1 -23.4000 68.6000 99 9.90000 6 162
1917060S14068 1917 11 SI MM NOT_NAMED 1917-03-04 09:00:00 NR -23.6543 68.6982 spur-split 1185 1185 _____P________ -1 -23.6543 68.6982 99 5 159
1917060S14068 1917 11 SI MM NOT_NAMED 1917-03-04 12:00:00 NR -23.8418 68.7823 spur-split 1198 1198 _____P________ -1 -23.8418 68.7823 99 4 155
1917060S14068 1917 11 SI MM NOT_NAMED 1917-03-04 15:00:00 NR -23.9722 68.8542 spur-split 1214 1214 _____P________ -1 -23.9722 68.8542 99 2 150
1917060S14068 1917 11 SI MM NOT_NAMED 1917-03-04 18:00:00 NR -24.0549 68.9158 spur-split 1218 1218 _____P________ -1 -24.0549 68.9158 99 2 141
1917060S14068 1917 11 SI MM NOT_NAMED 1917-03-04 21:00:00 NR -24.0995 68.9691 spur-split 1227 1227 _____P________ -1 -24.0995 68.9691 99 1 125
1917060S14068 1917 11 SI MM NOT_NAMED 1917-03-05 00:00:00 NR -24.1155 69.0162 spur-split 1227 1227 _____P________ -1 -24.1155 69.0162 99 1 99
1917060S14068 1917 11 SI MM NOT_NAMED 1917-03-05 03:00:00 NR -24.1125 69.0592 spur-split 1237 1237 _____P________ -1 -24.1125 69.0592 99 1 79
1917060S14068 1917 11 SI MM NOT_NAMED 1917-03-05 06:00:00 NR -24.1000 69.1000 reunion spur-split 1237 _____O________ -1 -24.1000 69.1000 99 9.90000 1 72

About IBTrACS Database

This database is a web-friendly format of International Best Track Archive for Climate Stewardship (IBTrACS), a global best track data archive curated by NOAA dating back to 1842.

Updated: 2021-10-21